createdAt,value
2016-12-31T00:00:11.946Z,16.10
2016-12-31T00:01:12.036Z,16.10
2016-12-31T00:02:11.167Z,16.10
2016-12-31T00:03:08.319Z,16.20
2016-12-31T00:04:12.214Z,16.10
2016-12-31T00:05:12.017Z,16.10
2016-12-31T00:06:12.606Z,16.10
2016-12-31T00:07:12.463Z,16.20
2016-12-31T00:08:11.290Z,16.10
2016-12-31T00:09:11.604Z,16.20
2016-12-31T00:10:11.621Z,16.10
2016-12-31T00:11:13.177Z,16.20
2016-12-31T00:12:11.849Z,16.10
2016-12-31T00:13:12.061Z,16.10
2016-12-31T00:14:11.626Z,16.10
2016-12-31T00:15:12.168Z,16.10
2016-12-31T00:16:11.750Z,16.10
2016-12-31T00:17:12.847Z,16.10
2016-12-31T00:18:11.852Z,16.10
2016-12-31T00:19:13.887Z,16.10
2016-12-31T00:20:11.130Z,16.10
2016-12-31T00:21:11.206Z,16.10
2016-12-31T00:22:11.611Z,16.10
2016-12-31T00:23:10.342Z,16.10
2016-12-31T00:24:12.340Z,16.10
2016-12-31T00:25:11.428Z,16.10
2016-12-31T00:26:11.449Z,16.10
2016-12-31T00:27:11.580Z,16.10
2016-12-31T00:28:12.347Z,16.10
2016-12-31T00:29:13.904Z,16.10
2016-12-31T00:30:11.898Z,16.10
2016-12-31T00:31:12.454Z,16.10
2016-12-31T00:32:11.978Z,16.10
2016-12-31T00:33:11.548Z,16.10
2016-12-31T00:34:13.245Z,16.10
2016-12-31T00:35:11.276Z,16.10
2016-12-31T00:36:11.235Z,16.10
2016-12-31T00:37:11.782Z,16.10
2016-12-31T00:38:11.803Z,16.10
2016-12-31T00:39:11.762Z,16.10
2016-12-31T00:40:12.124Z,16.10
2016-12-31T00:41:11.490Z,16.10
2016-12-31T00:42:12.247Z,16.10
2016-12-31T00:43:09.718Z,16.10
2016-12-31T00:44:11.859Z,16.10
2016-12-31T00:45:12.735Z,16.10
2016-12-31T00:46:11.739Z,16.10
2016-12-31T00:47:11.241Z,16.10
2016-12-31T00:48:11.384Z,16.10
2016-12-31T00:49:10.109Z,16.10
2016-12-31T00:50:11.638Z,16.10
2016-12-31T00:51:12.070Z,16.10
2016-12-31T00:52:12.728Z,16.10
2016-12-31T00:53:11.762Z,16.10
2016-12-31T00:54:13.318Z,16.10
2016-12-31T00:55:12.050Z,16.10
2016-12-31T00:56:11.814Z,16.10
2016-12-31T00:57:12.666Z,16.10
2016-12-31T00:58:11.581Z,16.10
2016-12-31T00:59:11.959Z,16.10
2016-12-31T01:00:13.290Z,16.10
2016-12-31T01:01:11.846Z,16.10
2016-12-31T01:02:14.929Z,16.10
2016-12-31T01:03:12.543Z,16.10
2016-12-31T01:04:12.965Z,16.10
2016-12-31T01:05:12.775Z,16.10
2016-12-31T01:06:12.479Z,16.10
2016-12-31T01:07:11.992Z,16.10
2016-12-31T01:08:12.554Z,16.10
2016-12-31T01:09:13.340Z,16.10
2016-12-31T01:10:12.278Z,16.10
2016-12-31T01:11:11.218Z,16.10
2016-12-31T01:12:11.657Z,16.10
2016-12-31T01:13:11.765Z,16.10
2016-12-31T01:14:12.455Z,16.10
2016-12-31T01:15:14.532Z,16.10
2016-12-31T01:16:13.345Z,16.10
2016-12-31T01:17:13.255Z,16.10
2016-12-31T01:18:13.769Z,16.10
2016-12-31T01:19:11.871Z,16.10
2016-12-31T01:20:12.389Z,16.10
2016-12-31T01:21:12.380Z,16.10
2016-12-31T01:22:11.858Z,16.10
2016-12-31T01:23:12.287Z,16.10
2016-12-31T01:24:11.908Z,16.10
2016-12-31T01:25:13.539Z,16.10
2016-12-31T01:26:11.701Z,16.10
2016-12-31T01:27:12.399Z,16.10
2016-12-31T01:28:12.062Z,16.10
2016-12-31T01:29:12.277Z,16.10
2016-12-31T01:30:11.465Z,16.10
2016-12-31T01:31:13.449Z,16.10
2016-12-31T01:32:11.456Z,16.10
2016-12-31T01:33:12.109Z,16.10
2016-12-31T01:34:11.487Z,16.10
2016-12-31T01:35:12.769Z,16.10
2016-12-31T01:36:12.653Z,16.10
2016-12-31T01:37:11.885Z,16.10
2016-12-31T01:38:11.936Z,16.10
2016-12-31T01:39:12.610Z,16.10
2016-12-31T01:40:12.093Z,16.10
2016-12-31T01:41:12.779Z,16.10
2016-12-31T01:42:12.493Z,16.10
2016-12-31T01:43:12.437Z,16.10
2016-12-31T01:44:09.961Z,16.10
2016-12-31T01:45:12.096Z,16.10
2016-12-31T01:46:11.908Z,16.10
2016-12-31T01:47:09.658Z,16.10
2016-12-31T01:48:13.010Z,16.10
2016-12-31T01:49:12.242Z,16.10
2016-12-31T01:50:12.097Z,16.10
2016-12-31T01:51:12.286Z,16.10
2016-12-31T01:52:12.846Z,16.10
2016-12-31T01:53:12.002Z,16.10
2016-12-31T01:54:13.603Z,16.10
2016-12-31T01:55:10.004Z,16.10
2016-12-31T01:56:12.770Z,16.10
2016-12-31T01:57:12.938Z,16.10
2016-12-31T01:58:13.192Z,16.10
2016-12-31T01:59:18.572Z,16.10
2016-12-31T02:00:12.404Z,16.10
2016-12-31T02:01:11.418Z,16.10
2016-12-31T02:02:12.321Z,16.10
2016-12-31T02:03:11.897Z,16.10
2016-12-31T02:04:11.936Z,16.10
2016-12-31T02:05:12.381Z,16.10
2016-12-31T02:06:11.944Z,16.10
2016-12-31T02:07:12.303Z,16.10
2016-12-31T02:08:11.900Z,16.10
2016-12-31T02:09:11.909Z,16.10
2016-12-31T02:10:12.220Z,16.10
2016-12-31T02:11:11.836Z,16.10
2016-12-31T02:12:10.542Z,16.10
2016-12-31T02:13:11.693Z,16.10
2016-12-31T02:14:12.286Z,16.10
2016-12-31T02:15:12.625Z,16.10
2016-12-31T02:16:12.287Z,16.10
2016-12-31T02:17:11.526Z,16.10
2016-12-31T02:18:08.659Z,16.10
2016-12-31T02:19:12.751Z,16.10
2016-12-31T02:20:10.231Z,16.10
2016-12-31T02:21:12.221Z,16.10
2016-12-31T02:22:12.780Z,16.10
2016-12-31T02:23:12.506Z,16.10
2016-12-31T02:24:12.652Z,16.10
2016-12-31T02:25:12.701Z,16.10
2016-12-31T02:26:11.783Z,16.10
2016-12-31T02:27:11.850Z,16.10
2016-12-31T02:28:11.934Z,16.10
2016-12-31T02:29:10.381Z,16.10
2016-12-31T02:30:12.524Z,16.10
2016-12-31T02:31:12.395Z,16.10
2016-12-31T02:32:12.078Z,16.10
2016-12-31T02:33:12.165Z,16.10
2016-12-31T02:34:12.113Z,16.10
2016-12-31T02:35:12.151Z,16.10
2016-12-31T02:36:11.793Z,16.10
2016-12-31T02:37:11.802Z,16.10
2016-12-31T02:38:11.870Z,16.10
2016-12-31T02:39:11.809Z,16.10
2016-12-31T02:40:11.842Z,16.10
2016-12-31T02:41:12.745Z,16.10
2016-12-31T02:42:12.418Z,16.10
2016-12-31T02:43:13.426Z,16.10
2016-12-31T02:44:12.042Z,16.10
2016-12-31T02:45:11.158Z,16.10
2016-12-31T02:46:11.821Z,16.10
2016-12-31T02:47:12.547Z,16.10
2016-12-31T02:48:11.543Z,16.10
2016-12-31T02:49:12.148Z,16.10
2016-12-31T02:50:12.425Z,16.10
2016-12-31T02:51:11.425Z,16.10
2016-12-31T02:52:11.520Z,16.10
2016-12-31T02:53:11.589Z,16.10
2016-12-31T02:54:11.731Z,16.10
2016-12-31T02:55:13.168Z,16.10
2016-12-31T02:56:11.303Z,16.10
2016-12-31T02:57:11.252Z,16.10
2016-12-31T02:58:11.400Z,16.10
2016-12-31T02:59:11.442Z,16.10
2016-12-31T03:00:12.471Z,16.10
2016-12-31T03:01:13.168Z,16.10
2016-12-31T03:02:11.388Z,16.10
2016-12-31T03:03:11.521Z,16.10
2016-12-31T03:04:12.550Z,16.10
2016-12-31T03:05:11.569Z,16.10
2016-12-31T03:06:10.254Z,16.10
2016-12-31T03:07:13.761Z,16.10
2016-12-31T03:08:12.248Z,16.10
2016-12-31T03:09:12.002Z,16.10
2016-12-31T03:10:12.746Z,16.10
2016-12-31T03:11:12.459Z,16.10
2016-12-31T03:12:09.915Z,16.10
2016-12-31T03:13:11.344Z,16.10
2016-12-31T03:14:12.111Z,16.10
2016-12-31T03:15:12.699Z,16.10
2016-12-31T03:16:13.225Z,16.10
2016-12-31T03:17:11.384Z,16.10
2016-12-31T03:18:11.528Z,16.10
2016-12-31T03:19:11.665Z,16.10
2016-12-31T03:20:12.386Z,16.10
2016-12-31T03:21:09.716Z,16.10
2016-12-31T03:22:11.223Z,16.10
2016-12-31T03:23:11.315Z,16.10
2016-12-31T03:24:11.359Z,16.10
2016-12-31T03:25:12.336Z,16.10
2016-12-31T03:26:12.749Z,16.10
2016-12-31T03:27:12.483Z,16.10
2016-12-31T03:28:11.551Z,16.10
2016-12-31T03:29:12.190Z,16.10
2016-12-31T03:30:11.958Z,16.10
2016-12-31T03:31:12.824Z,16.10
2016-12-31T03:32:11.799Z,16.10
2016-12-31T03:33:13.685Z,16.10
2016-12-31T03:34:12.011Z,16.10
2016-12-31T03:35:11.522Z,16.10
2016-12-31T03:36:11.575Z,16.10
2016-12-31T03:37:12.431Z,16.10
2016-12-31T03:38:11.999Z,16.10
2016-12-31T03:39:12.487Z,16.10
2016-12-31T03:40:09.987Z,16.10
2016-12-31T03:41:12.051Z,16.10
2016-12-31T03:42:08.692Z,16.10
2016-12-31T03:43:12.033Z,16.10
2016-12-31T03:44:11.765Z,16.10
2016-12-31T03:45:11.679Z,16.10
2016-12-31T03:46:10.373Z,16.10
2016-12-31T03:47:11.834Z,16.10
2016-12-31T03:48:11.902Z,16.10
2016-12-31T03:49:11.910Z,16.10
2016-12-31T03:50:12.444Z,16.10
2016-12-31T03:51:11.443Z,16.10
2016-12-31T03:52:12.217Z,16.10
2016-12-31T03:53:12.032Z,16.10
2016-12-31T03:54:11.072Z,16.10
2016-12-31T03:55:11.651Z,16.10
2016-12-31T03:56:12.003Z,16.10
2016-12-31T03:57:11.568Z,16.10
2016-12-31T03:58:11.671Z,16.10
2016-12-31T03:59:12.405Z,16.10
2016-12-31T04:00:12.221Z,16.10
2016-12-31T04:01:11.302Z,16.10
2016-12-31T04:02:12.037Z,16.10
2016-12-31T04:03:12.832Z,16.10
2016-12-31T04:04:11.819Z,16.10
2016-12-31T04:05:12.540Z,16.10
2016-12-31T04:06:12.562Z,16.10
2016-12-31T04:07:12.190Z,16.10
2016-12-31T04:08:08.573Z,16.10
2016-12-31T04:09:12.371Z,16.10
2016-12-31T04:10:11.964Z,16.10
2016-12-31T04:11:11.673Z,16.10
2016-12-31T04:12:12.590Z,16.10
2016-12-31T04:13:12.180Z,16.10
2016-12-31T04:14:11.093Z,16.10
2016-12-31T04:15:09.715Z,16.10
2016-12-31T04:16:11.958Z,16.10
2016-12-31T04:17:12.714Z,16.10
2016-12-31T04:18:12.323Z,16.10
2016-12-31T04:19:13.093Z,16.10
2016-12-31T04:20:11.708Z,16.10
2016-12-31T04:21:10.090Z,16.10
2016-12-31T04:22:12.310Z,16.10
2016-12-31T04:23:12.040Z,16.10
2016-12-31T04:24:12.272Z,16.10
2016-12-31T04:25:11.242Z,16.10
2016-12-31T04:26:12.097Z,16.10
2016-12-31T04:27:11.081Z,16.10
2016-12-31T04:28:12.493Z,16.10
2016-12-31T04:29:11.485Z,16.10
2016-12-31T04:30:13.099Z,16.10
2016-12-31T04:31:08.981Z,16.10
2016-12-31T04:32:12.253Z,16.10
2016-12-31T04:33:11.152Z,16.10
2016-12-31T04:34:11.881Z,16.10
2016-12-31T04:35:12.590Z,16.10
2016-12-31T04:36:12.315Z,16.10
2016-12-31T04:37:08.548Z,16.10
2016-12-31T04:38:09.961Z,16.10
2016-12-31T04:39:11.497Z,16.10
2016-12-31T04:40:12.470Z,16.10
2016-12-31T04:41:11.940Z,16.10
2016-12-31T04:42:12.559Z,16.10
2016-12-31T04:43:11.852Z,16.10
2016-12-31T04:44:12.404Z,16.10
2016-12-31T04:45:11.404Z,16.10
2016-12-31T04:46:11.391Z,16.10
2016-12-31T04:47:11.959Z,16.10
2016-12-31T04:48:12.521Z,16.10
2016-12-31T04:49:11.877Z,16.10
2016-12-31T04:50:11.976Z,16.10
2016-12-31T04:51:13.713Z,16.00
2016-12-31T04:52:14.441Z,16.10
2016-12-31T04:53:11.541Z,16.10
2016-12-31T04:54:11.634Z,16.10
2016-12-31T04:55:11.802Z,16.10
2016-12-31T04:56:11.778Z,16.10
2016-12-31T04:57:11.052Z,16.10
2016-12-31T04:58:11.849Z,16.10
2016-12-31T04:59:12.644Z,16.10
2016-12-31T05:00:13.290Z,16.10
2016-12-31T05:01:13.007Z,16.10
2016-12-31T05:02:12.381Z,16.10
2016-12-31T05:03:11.517Z,16.10
2016-12-31T05:04:11.608Z,16.10
2016-12-31T05:05:14.195Z,16.10
2016-12-31T05:06:12.240Z,16.10
2016-12-31T05:07:11.729Z,16.10
2016-12-31T05:08:11.654Z,16.10
2016-12-31T05:09:11.609Z,16.10
2016-12-31T05:10:09.891Z,16.10
2016-12-31T05:11:12.233Z,16.10
2016-12-31T05:12:12.078Z,16.10
2016-12-31T05:13:11.970Z,16.10
2016-12-31T05:14:12.132Z,16.10
2016-12-31T05:15:11.138Z,16.10
2016-12-31T05:16:09.804Z,16.10
2016-12-31T05:17:12.024Z,16.10
2016-12-31T05:18:12.739Z,16.10
2016-12-31T05:19:11.417Z,16.10
2016-12-31T05:20:11.449Z,16.10
2016-12-31T05:21:11.480Z,16.10
2016-12-31T05:22:11.892Z,16.10
2016-12-31T05:23:11.990Z,16.10
2016-12-31T05:24:12.094Z,16.10
2016-12-31T05:25:16.968Z,16.10
2016-12-31T05:26:12.449Z,16.10
2016-12-31T05:27:12.042Z,16.10
2016-12-31T05:28:08.387Z,16.10
2016-12-31T05:29:10.207Z,16.10
2016-12-31T05:30:12.737Z,16.10
2016-12-31T05:31:12.373Z,16.10
2016-12-31T05:32:12.336Z,16.10
2016-12-31T05:33:11.713Z,16.10
2016-12-31T05:34:12.521Z,16.10
2016-12-31T05:35:12.335Z,16.10
2016-12-31T05:36:08.816Z,16.10
2016-12-31T05:37:12.445Z,16.10
2016-12-31T05:38:12.011Z,16.10
2016-12-31T05:39:11.495Z,16.10
2016-12-31T05:40:12.084Z,16.10
2016-12-31T05:41:11.173Z,16.10
2016-12-31T05:42:11.816Z,16.10
2016-12-31T05:43:11.729Z,16.10
2016-12-31T05:44:11.724Z,16.10
2016-12-31T05:45:11.759Z,16.10
2016-12-31T05:46:13.410Z,16.10
2016-12-31T05:47:11.327Z,16.10
2016-12-31T05:48:12.356Z,16.10
2016-12-31T05:49:11.943Z,16.10
2016-12-31T05:50:12.503Z,16.10
2016-12-31T05:51:09.248Z,16.10
2016-12-31T05:52:12.304Z,16.10
2016-12-31T05:53:11.248Z,16.10
2016-12-31T05:54:11.137Z,16.10
2016-12-31T05:55:11.557Z,16.10
2016-12-31T05:56:12.206Z,16.10
2016-12-31T05:57:12.995Z,16.10
2016-12-31T05:58:12.020Z,16.10
2016-12-31T05:59:12.707Z,16.10
2016-12-31T06:00:13.285Z,16.10
2016-12-31T06:01:11.459Z,16.10
2016-12-31T06:02:12.332Z,16.10
2016-12-31T06:03:11.358Z,16.10
2016-12-31T06:04:12.978Z,16.10
2016-12-31T06:05:11.820Z,16.10
2016-12-31T06:06:11.860Z,16.10
2016-12-31T06:07:12.002Z,16.10
2016-12-31T06:08:12.582Z,16.10
2016-12-31T06:09:13.299Z,16.10
2016-12-31T06:10:09.878Z,16.10
2016-12-31T06:11:13.415Z,16.10
2016-12-31T06:12:12.055Z,16.10
2016-12-31T06:13:11.526Z,16.10
2016-12-31T06:14:11.405Z,16.10
2016-12-31T06:15:11.330Z,16.10
2016-12-31T06:16:11.794Z,16.10
2016-12-31T06:17:11.987Z,16.10
2016-12-31T06:18:12.518Z,16.10
2016-12-31T06:19:11.649Z,16.10
2016-12-31T06:20:13.165Z,16.10
2016-12-31T06:21:09.836Z,16.10
2016-12-31T06:22:11.916Z,16.10
2016-12-31T06:23:11.830Z,16.10
2016-12-31T06:24:11.898Z,16.10
2016-12-31T06:25:12.442Z,16.10
2016-12-31T06:26:10.013Z,16.10
2016-12-31T06:27:11.490Z,16.10
2016-12-31T06:28:12.148Z,16.10
2016-12-31T06:29:11.251Z,16.10
2016-12-31T06:30:12.017Z,16.10
2016-12-31T06:31:11.075Z,16.10
2016-12-31T06:32:11.795Z,16.10
2016-12-31T06:33:12.615Z,16.10
2016-12-31T06:34:11.739Z,16.10
2016-12-31T06:35:11.706Z,16.10
2016-12-31T06:36:11.789Z,16.10
2016-12-31T06:37:12.379Z,16.10
2016-12-31T06:38:12.923Z,16.10
2016-12-31T06:39:09.664Z,16.10
2016-12-31T06:40:09.810Z,16.10
2016-12-31T06:41:09.717Z,16.10
2016-12-31T06:42:11.829Z,16.10
2016-12-31T06:43:11.954Z,16.10
2016-12-31T06:44:13.620Z,16.10
2016-12-31T06:45:12.238Z,16.10
2016-12-31T06:46:11.127Z,16.10
2016-12-31T06:47:11.739Z,16.10
2016-12-31T06:48:11.708Z,16.10
2016-12-31T06:49:12.045Z,16.10
2016-12-31T06:50:11.379Z,16.10
2016-12-31T06:51:11.771Z,16.10
2016-12-31T06:52:12.612Z,16.10
2016-12-31T06:53:12.100Z,16.10
2016-12-31T06:54:11.938Z,16.10
2016-12-31T06:55:12.508Z,16.10
2016-12-31T06:56:12.048Z,16.10
2016-12-31T06:57:11.600Z,16.10
2016-12-31T06:58:09.838Z,16.10
2016-12-31T06:59:11.310Z,16.10
2016-12-31T07:00:11.900Z,16.10
2016-12-31T07:01:11.888Z,16.10
2016-12-31T07:02:13.541Z,16.10
2016-12-31T07:03:12.351Z,16.10
2016-12-31T07:04:10.069Z,16.10
2016-12-31T07:05:11.951Z,16.10
2016-12-31T07:06:15.059Z,16.10
2016-12-31T07:07:11.859Z,16.10
2016-12-31T07:08:12.052Z,16.10
2016-12-31T07:09:11.740Z,16.10
2016-12-31T07:10:12.609Z,16.10
2016-12-31T07:11:11.496Z,16.10
2016-12-31T07:12:12.042Z,16.10
2016-12-31T07:13:11.750Z,16.10
2016-12-31T07:14:12.297Z,16.10
2016-12-31T07:15:11.709Z,16.10
2016-12-31T07:16:12.173Z,16.00
2016-12-31T07:17:12.540Z,16.10
2016-12-31T07:18:11.460Z,16.10
2016-12-31T07:19:12.800Z,16.10
2016-12-31T07:20:11.704Z,16.10
2016-12-31T07:21:12.786Z,16.10
2016-12-31T07:22:11.487Z,16.10
2016-12-31T07:23:11.864Z,16.10
2016-12-31T07:24:12.174Z,16.10
2016-12-31T07:25:11.823Z,16.10
2016-12-31T07:26:12.404Z,16.10
2016-12-31T07:27:12.950Z,16.10
2016-12-31T07:28:15.583Z,16.10
2016-12-31T07:29:13.294Z,16.10
2016-12-31T07:30:11.749Z,16.10
2016-12-31T07:31:11.904Z,16.10
2016-12-31T07:32:11.892Z,16.10
2016-12-31T07:33:13.613Z,16.10
2016-12-31T07:34:11.624Z,16.10
2016-12-31T07:35:13.373Z,16.10
2016-12-31T07:36:11.365Z,16.10
2016-12-31T07:37:13.021Z,16.10
2016-12-31T07:38:11.170Z,16.10
2016-12-31T07:39:08.834Z,16.10
2016-12-31T07:40:12.358Z,16.10
2016-12-31T07:41:12.109Z,16.10
2016-12-31T07:42:11.836Z,16.10
2016-12-31T07:43:11.768Z,16.10
2016-12-31T07:44:12.275Z,16.10
2016-12-31T07:45:12.323Z,16.10
2016-12-31T07:46:11.843Z,16.10
2016-12-31T07:47:12.444Z,16.10
2016-12-31T07:48:13.065Z,16.10
2016-12-31T07:49:12.146Z,16.10
2016-12-31T07:50:09.590Z,16.10
2016-12-31T07:51:11.453Z,16.10
2016-12-31T07:52:11.391Z,16.10
2016-12-31T07:53:11.996Z,16.10
2016-12-31T07:54:11.836Z,16.10
2016-12-31T07:55:12.444Z,16.10
2016-12-31T07:56:11.439Z,16.10
2016-12-31T07:57:13.259Z,16.10
2016-12-31T07:58:11.834Z,16.10
2016-12-31T07:59:11.852Z,16.10
2016-12-31T08:00:11.631Z,16.10
2016-12-31T08:01:11.696Z,16.10
2016-12-31T08:02:13.295Z,15.70
2016-12-31T08:03:11.261Z,13.90
2016-12-31T08:04:11.133Z,12.30
2016-12-31T08:05:11.311Z,11.00
2016-12-31T08:06:12.036Z,10.20
2016-12-31T08:07:11.583Z,9.40
2016-12-31T08:08:12.136Z,8.80
2016-12-31T08:09:11.214Z,8.40
2016-12-31T08:10:11.246Z,8.10
2016-12-31T08:11:11.386Z,7.80
2016-12-31T08:12:11.464Z,7.60
2016-12-31T08:13:09.959Z,7.50
2016-12-31T08:14:12.049Z,7.30
2016-12-31T08:15:11.187Z,7.70
2016-12-31T08:16:11.189Z,8.30
2016-12-31T08:17:09.762Z,9.00
2016-12-31T08:18:12.076Z,9.60
2016-12-31T08:19:11.250Z,10.30
2016-12-31T08:20:11.206Z,10.90
2016-12-31T08:21:11.810Z,11.40
2016-12-31T08:22:12.441Z,11.80
2016-12-31T08:23:12.158Z,12.20
2016-12-31T08:24:11.553Z,12.60
2016-12-31T08:25:12.248Z,12.90
2016-12-31T08:26:12.777Z,13.10
2016-12-31T08:27:12.243Z,13.40
2016-12-31T08:28:13.154Z,13.60
2016-12-31T08:29:11.314Z,13.80
2016-12-31T08:30:11.472Z,14.00
2016-12-31T08:31:11.577Z,14.10
2016-12-31T08:32:12.800Z,14.30
2016-12-31T08:33:11.897Z,14.40
2016-12-31T08:34:13.027Z,14.50
2016-12-31T08:35:11.049Z,14.60
2016-12-31T08:36:11.181Z,14.70
2016-12-31T08:37:11.329Z,14.80
2016-12-31T08:38:11.424Z,14.90
2016-12-31T08:39:12.139Z,15.00
2016-12-31T08:40:11.332Z,15.00
2016-12-31T08:41:11.872Z,15.10
2016-12-31T08:42:11.876Z,15.20
2016-12-31T08:43:11.302Z,15.20
2016-12-31T08:44:11.362Z,15.30
2016-12-31T08:45:11.283Z,15.30
2016-12-31T08:46:12.049Z,15.30
2016-12-31T08:47:11.150Z,15.40
2016-12-31T08:48:12.319Z,15.40
2016-12-31T08:49:11.309Z,15.50
2016-12-31T08:50:11.420Z,15.50
2016-12-31T08:51:11.602Z,15.50
2016-12-31T08:52:12.534Z,15.60
2016-12-31T08:53:12.031Z,15.60
2016-12-31T08:54:12.699Z,15.60
2016-12-31T08:55:12.192Z,15.70
2016-12-31T08:56:09.444Z,15.70
2016-12-31T08:57:11.020Z,15.70
2016-12-31T08:58:11.050Z,15.70
2016-12-31T08:59:11.511Z,15.80
2016-12-31T09:00:11.830Z,15.80
2016-12-31T09:01:11.926Z,15.80
2016-12-31T09:02:12.117Z,15.80
2016-12-31T09:03:11.733Z,15.80
2016-12-31T09:04:12.205Z,15.80
2016-12-31T09:05:11.949Z,15.80
2016-12-31T09:06:12.539Z,15.80
2016-12-31T09:07:11.553Z,15.80
2016-12-31T09:08:11.524Z,15.80
2016-12-31T09:09:11.295Z,15.80
2016-12-31T09:10:11.765Z,15.80
2016-12-31T09:11:11.714Z,15.80
2016-12-31T09:12:12.546Z,15.80
2016-12-31T09:13:11.902Z,15.80
2016-12-31T09:14:12.456Z,15.80
2016-12-31T09:15:11.392Z,15.80
2016-12-31T09:16:11.513Z,15.80
2016-12-31T09:17:11.638Z,15.80
2016-12-31T09:18:11.604Z,15.80
2016-12-31T09:19:10.147Z,15.80
2016-12-31T09:20:10.072Z,15.80
2016-12-31T09:21:12.044Z,15.70
2016-12-31T09:22:11.788Z,15.70
2016-12-31T09:23:12.540Z,15.70
2016-12-31T09:24:13.346Z,15.70
2016-12-31T09:25:11.844Z,15.70
2016-12-31T09:26:11.932Z,15.70
2016-12-31T09:27:11.996Z,15.70
2016-12-31T09:28:11.967Z,15.70
2016-12-31T09:29:11.975Z,15.70
2016-12-31T09:30:11.518Z,15.70
2016-12-31T09:31:12.849Z,15.70
2016-12-31T09:32:11.782Z,15.70
2016-12-31T09:33:10.458Z,15.70
2016-12-31T09:34:11.483Z,15.60
2016-12-31T09:35:11.496Z,15.60
2016-12-31T09:36:11.428Z,15.60
2016-12-31T09:37:13.097Z,15.60
2016-12-31T09:38:12.094Z,15.60
2016-12-31T09:39:13.053Z,15.60
2016-12-31T09:40:11.635Z,15.60
2016-12-31T09:41:12.227Z,15.60
2016-12-31T09:42:09.404Z,15.60
2016-12-31T09:43:09.608Z,15.60
2016-12-31T09:44:11.287Z,15.60
2016-12-31T09:45:12.145Z,15.60
2016-12-31T09:46:09.020Z,15.60
2016-12-31T09:47:08.765Z,15.60
2016-12-31T09:48:12.554Z,15.60
2016-12-31T09:49:11.164Z,15.60
2016-12-31T09:50:11.471Z,15.60
2016-12-31T09:51:13.425Z,15.60
2016-12-31T09:52:12.055Z,15.60
2016-12-31T09:53:12.682Z,15.60
2016-12-31T09:54:12.283Z,15.50
2016-12-31T09:55:12.091Z,15.50
2016-12-31T09:56:11.188Z,15.50
2016-12-31T09:57:12.043Z,15.50
2016-12-31T09:58:11.185Z,15.50
2016-12-31T09:59:11.776Z,15.50
2016-12-31T10:00:11.845Z,15.50
2016-12-31T10:01:11.916Z,15.50
2016-12-31T10:02:11.691Z,15.50
2016-12-31T10:03:12.318Z,15.60
2016-12-31T10:04:11.266Z,15.60
2016-12-31T10:05:11.528Z,15.60
2016-12-31T10:06:11.796Z,15.60
2016-12-31T10:07:12.337Z,15.70
2016-12-31T10:08:11.243Z,15.60
2016-12-31T10:09:11.395Z,15.60
2016-12-31T10:10:11.353Z,15.70
2016-12-31T10:11:11.361Z,15.70
2016-12-31T10:12:11.314Z,15.70
2016-12-31T10:13:13.175Z,15.70
2016-12-31T10:14:11.814Z,15.70
2016-12-31T10:15:11.831Z,15.70
2016-12-31T10:16:10.125Z,15.70
2016-12-31T10:17:13.608Z,15.70
2016-12-31T10:18:13.230Z,15.70
2016-12-31T10:19:11.855Z,15.70
2016-12-31T10:20:11.810Z,15.70
2016-12-31T10:21:10.469Z,15.70
2016-12-31T10:22:12.550Z,15.70
2016-12-31T10:23:11.550Z,15.70
2016-12-31T10:24:12.198Z,15.70
2016-12-31T10:25:11.641Z,15.70
2016-12-31T10:26:13.177Z,15.70
2016-12-31T10:27:11.526Z,15.70
2016-12-31T10:28:12.460Z,15.80
2016-12-31T10:29:10.003Z,15.80
2016-12-31T10:30:12.176Z,15.70
2016-12-31T10:31:09.718Z,15.70
2016-12-31T10:32:11.422Z,15.70
2016-12-31T10:33:11.420Z,15.70
2016-12-31T10:34:11.404Z,15.70
2016-12-31T10:35:12.144Z,15.70
2016-12-31T10:36:12.138Z,15.70
2016-12-31T10:37:11.512Z,15.70
2016-12-31T10:38:11.923Z,15.70
2016-12-31T10:39:11.913Z,15.70
2016-12-31T10:40:12.505Z,15.70
2016-12-31T10:41:12.150Z,15.70
2016-12-31T10:42:09.893Z,15.70
2016-12-31T10:43:12.196Z,15.70
2016-12-31T10:44:08.463Z,15.70
2016-12-31T10:45:11.554Z,15.70
2016-12-31T10:46:11.764Z,15.70
2016-12-31T10:47:13.763Z,15.70
2016-12-31T10:48:12.316Z,15.70
2016-12-31T10:49:13.124Z,15.70
2016-12-31T10:50:12.923Z,15.70
2016-12-31T10:51:11.943Z,15.70
2016-12-31T10:52:11.190Z,15.70
2016-12-31T10:53:11.708Z,15.70
2016-12-31T10:54:11.754Z,15.70
2016-12-31T10:55:11.637Z,15.70
2016-12-31T10:56:10.051Z,15.70
2016-12-31T10:57:11.689Z,15.70
2016-12-31T10:58:12.134Z,15.70
2016-12-31T10:59:11.846Z,15.70
2016-12-31T11:00:11.950Z,15.70
2016-12-31T11:01:10.527Z,15.80
2016-12-31T11:02:11.857Z,15.70
2016-12-31T11:03:13.396Z,15.80
2016-12-31T11:04:11.506Z,15.80
2016-12-31T11:05:11.922Z,15.80
2016-12-31T11:06:12.029Z,15.80
2016-12-31T11:07:11.702Z,15.80
2016-12-31T11:08:12.252Z,15.80
2016-12-31T11:09:11.819Z,15.80
2016-12-31T11:10:11.834Z,15.80
2016-12-31T11:11:10.594Z,15.80
2016-12-31T11:12:11.864Z,15.80
2016-12-31T11:13:12.709Z,15.80
2016-12-31T11:14:12.408Z,15.80
2016-12-31T11:15:12.161Z,15.80
2016-12-31T11:16:11.946Z,15.80
2016-12-31T11:17:10.884Z,15.80
2016-12-31T11:18:12.177Z,15.80
2016-12-31T11:19:09.243Z,15.80
2016-12-31T11:20:12.242Z,15.80
2016-12-31T11:21:11.945Z,15.80
2016-12-31T11:25:12.441Z,15.80
2016-12-31T11:26:11.395Z,15.80
2016-12-31T11:27:09.698Z,15.80
2016-12-31T11:28:11.309Z,15.80
2016-12-31T11:29:13.150Z,15.80
2016-12-31T11:30:11.805Z,15.80
2016-12-31T11:31:13.445Z,15.80
2016-12-31T11:32:12.525Z,15.80
2016-12-31T11:33:14.334Z,15.80
2016-12-31T11:34:13.079Z,15.80
2016-12-31T11:35:12.810Z,15.80
2016-12-31T11:36:12.306Z,15.80
2016-12-31T11:37:12.828Z,15.80
2016-12-31T11:38:12.565Z,15.80
2016-12-31T11:39:12.899Z,15.80
2016-12-31T11:40:12.604Z,15.80
2016-12-31T11:41:12.246Z,15.80
2016-12-31T11:42:12.592Z,15.80
2016-12-31T11:43:12.394Z,15.80
2016-12-31T11:44:13.140Z,15.80
2016-12-31T11:45:10.782Z,15.80
2016-12-31T11:46:11.900Z,15.80
2016-12-31T11:47:12.457Z,15.80
2016-12-31T11:48:12.092Z,15.80
2016-12-31T11:49:12.255Z,15.80
2016-12-31T11:50:11.784Z,15.80
2016-12-31T11:51:13.664Z,15.80
2016-12-31T11:52:12.635Z,15.80
2016-12-31T11:53:13.297Z,15.80
2016-12-31T11:54:12.036Z,15.80
2016-12-31T11:55:12.207Z,15.80
2016-12-31T11:56:12.848Z,15.80
2016-12-31T11:57:12.904Z,15.80
2016-12-31T11:58:11.859Z,15.80
2016-12-31T11:59:12.427Z,15.80
2016-12-31T12:00:12.141Z,15.80
2016-12-31T12:01:11.788Z,15.80
2016-12-31T12:02:11.713Z,15.80
2016-12-31T12:03:13.337Z,15.80
2016-12-31T12:04:12.934Z,15.80
2016-12-31T12:05:13.802Z,15.80
2016-12-31T12:06:13.924Z,15.80
2016-12-31T12:10:11.648Z,15.80
2016-12-31T12:11:11.711Z,15.80
2016-12-31T12:12:10.397Z,15.80
2016-12-31T12:13:11.777Z,15.80
2016-12-31T12:14:13.364Z,15.80
2016-12-31T12:15:13.945Z,15.80
2016-12-31T12:16:12.235Z,15.80
2016-12-31T12:17:12.018Z,15.80
2016-12-31T12:18:12.755Z,15.80
2016-12-31T12:19:12.379Z,15.80
2016-12-31T12:20:13.164Z,15.90
2016-12-31T12:21:13.834Z,15.80
2016-12-31T12:22:12.800Z,15.80
2016-12-31T12:23:12.312Z,15.80
2016-12-31T12:24:12.211Z,15.80
2016-12-31T12:25:12.816Z,15.80
2016-12-31T12:26:13.378Z,15.80
2016-12-31T12:27:11.902Z,15.90
2016-12-31T12:28:12.678Z,15.90
2016-12-31T12:29:13.292Z,15.90
2016-12-31T12:30:12.357Z,15.90
2016-12-31T12:31:12.444Z,15.90
2016-12-31T12:32:11.682Z,15.90
2016-12-31T12:33:12.296Z,15.90
2016-12-31T12:34:13.138Z,15.90
2016-12-31T12:35:11.917Z,15.90
2016-12-31T12:36:12.253Z,15.90
2016-12-31T12:37:12.269Z,15.90
2016-12-31T12:38:11.975Z,15.90
2016-12-31T12:42:16.012Z,15.90
2016-12-31T12:43:22.392Z,15.90
2016-12-31T12:44:18.004Z,15.90
2016-12-31T12:45:30.968Z,15.90
2016-12-31T12:46:24.319Z,15.90
2016-12-31T12:47:26.402Z,15.90
2016-12-31T12:48:15.938Z,15.90
2016-12-31T12:49:45.241Z,15.90
2016-12-31T12:50:22.915Z,15.90
2016-12-31T12:51:17.398Z,15.90
2016-12-31T12:52:15.805Z,15.90
2016-12-31T12:53:36.349Z,15.90
2016-12-31T12:54:39.534Z,15.90
2016-12-31T12:55:28.525Z,15.90
2016-12-31T12:56:17.846Z,15.90
2016-12-31T12:57:28.295Z,15.90
2016-12-31T12:58:17.768Z,15.90
2016-12-31T12:59:17.331Z,15.90
2016-12-31T13:00:22.538Z,15.90
2016-12-31T13:01:16.362Z,15.90
2016-12-31T13:02:16.138Z,15.90